sensor_id;sensor_type;location;lat;lon;timestamp;P1;durP1;ratioP1;P2;durP2;ratioP2
21046;SDS011;10682;50.874;3.656;2023-01-23T00:01:26;43.57;;;21.07;;
21046;SDS011;10682;50.874;3.656;2023-01-23T00:03:57;44.03;;;21.23;;
21046;SDS011;10682;50.874;3.656;2023-01-23T00:06:26;42.80;;;21.17;;
21046;SDS011;10682;50.874;3.656;2023-01-23T00:08:53;42.83;;;20.27;;
21046;SDS011;10682;50.874;3.656;2023-01-23T00:11:25;43.40;;;22.03;;
21046;SDS011;10682;50.874;3.656;2023-01-23T00:13:55;46.60;;;22.43;;
21046;SDS011;10682;50.874;3.656;2023-01-23T00:16:24;45.23;;;20.87;;
21046;SDS011;10682;50.874;3.656;2023-01-23T00:18:53;40.93;;;21.27;;
21046;SDS011;10682;50.874;3.656;2023-01-23T00:21:21;41.20;;;20.10;;
21046;SDS011;10682;50.874;3.656;2023-01-23T00:23:55;46.03;;;20.33;;
21046;SDS011;10682;50.874;3.656;2023-01-23T00:26:27;39.87;;;19.53;;
21046;SDS011;10682;50.874;3.656;2023-01-23T00:28:57;40.77;;;20.33;;
21046;SDS011;10682;50.874;3.656;2023-01-23T00:31:26;42.07;;;20.20;;
21046;SDS011;10682;50.874;3.656;2023-01-23T00:34:06;43.37;;;20.73;;
21046;SDS011;10682;50.874;3.656;2023-01-23T00:36:38;43.70;;;21.40;;
21046;SDS011;10682;50.874;3.656;2023-01-23T00:39:14;38.60;;;20.50;;
21046;SDS011;10682;50.874;3.656;2023-01-23T00:41:48;44.83;;;20.67;;
21046;SDS011;10682;50.874;3.656;2023-01-23T00:44:18;45.90;;;20.27;;
21046;SDS011;10682;50.874;3.656;2023-01-23T00:46:46;43.93;;;21.10;;
21046;SDS011;10682;50.874;3.656;2023-01-23T00:49:14;40.63;;;19.10;;
21046;SDS011;10682;50.874;3.656;2023-01-23T00:51:43;38.57;;;19.83;;
21046;SDS011;10682;50.874;3.656;2023-01-23T00:54:13;41.17;;;21.13;;
21046;SDS011;10682;50.874;3.656;2023-01-23T00:56:41;41.53;;;19.47;;
21046;SDS011;10682;50.874;3.656;2023-01-23T00:59:08;40.10;;;19.90;;
21046;SDS011;10682;50.874;3.656;2023-01-23T01:01:35;38.93;;;19.33;;
21046;SDS011;10682;50.874;3.656;2023-01-23T01:04:03;42.63;;;19.60;;
21046;SDS011;10682;50.874;3.656;2023-01-23T01:06:33;41.13;;;20.10;;
21046;SDS011;10682;50.874;3.656;2023-01-23T01:09:00;47.13;;;20.93;;
21046;SDS011;10682;50.874;3.656;2023-01-23T01:11:27;42.13;;;19.77;;
21046;SDS011;10682;50.874;3.656;2023-01-23T01:13:54;40.27;;;19.93;;
21046;SDS011;10682;50.874;3.656;2023-01-23T01:16:24;42.43;;;19.80;;
21046;SDS011;10682;50.874;3.656;2023-01-23T01:18:51;42.47;;;20.23;;
21046;SDS011;10682;50.874;3.656;2023-01-23T01:21:18;46.83;;;22.00;;
21046;SDS011;10682;50.874;3.656;2023-01-23T01:23:46;44.23;;;20.80;;
21046;SDS011;10682;50.874;3.656;2023-01-23T01:26:13;43.50;;;20.50;;
21046;SDS011;10682;50.874;3.656;2023-01-23T01:28:43;41.10;;;20.80;;
21046;SDS011;10682;50.874;3.656;2023-01-23T01:31:11;42.90;;;19.87;;
21046;SDS011;10682;50.874;3.656;2023-01-23T01:33:41;43.33;;;21.03;;
21046;SDS011;10682;50.874;3.656;2023-01-23T01:36:15;43.13;;;20.13;;
21046;SDS011;10682;50.874;3.656;2023-01-23T01:38:45;46.93;;;21.83;;
21046;SDS011;10682;50.874;3.656;2023-01-23T01:41:13;45.77;;;21.37;;
21046;SDS011;10682;50.874;3.656;2023-01-23T01:43:41;47.93;;;22.43;;
21046;SDS011;10682;50.874;3.656;2023-01-23T01:46:23;43.37;;;19.97;;
21046;SDS011;10682;50.874;3.656;2023-01-23T01:54:10;44.77;;;20.50;;
21046;SDS011;10682;50.874;3.656;2023-01-23T01:59:36;46.40;;;22.43;;
21046;SDS011;10682;50.874;3.656;2023-01-23T02:02:16;44.97;;;21.70;;
21046;SDS011;10682;50.874;3.656;2023-01-23T02:04:50;50.27;;;20.87;;
21046;SDS011;10682;50.874;3.656;2023-01-23T02:07:31;49.67;;;22.03;;
21046;SDS011;10682;50.874;3.656;2023-01-23T02:10:05;45.20;;;21.60;;
21046;SDS011;10682;50.874;3.656;2023-01-23T02:12:39;46.07;;;22.00;;
21046;SDS011;10682;50.874;3.656;2023-01-23T02:15:06;47.93;;;21.70;;
21046;SDS011;10682;50.874;3.656;2023-01-23T02:17:34;50.80;;;22.00;;
21046;SDS011;10682;50.874;3.656;2023-01-23T02:20:14;47.67;;;21.73;;
21046;SDS011;10682;50.874;3.656;2023-01-23T02:26:00;47.40;;;22.07;;
21046;SDS011;10682;50.874;3.656;2023-01-23T02:28:37;46.30;;;21.83;;
21046;SDS011;10682;50.874;3.656;2023-01-23T02:31:07;52.60;;;22.03;;
21046;SDS011;10682;50.874;3.656;2023-01-23T02:36:04;54.17;;;23.27;;
21046;SDS011;10682;50.874;3.656;2023-01-23T02:38:35;49.03;;;21.93;;
21046;SDS011;10682;50.874;3.656;2023-01-23T02:41:09;52.33;;;23.00;;
21046;SDS011;10682;50.874;3.656;2023-01-23T02:43:39;47.00;;;22.50;;
21046;SDS011;10682;50.874;3.656;2023-01-23T02:46:09;51.93;;;22.20;;
21046;SDS011;10682;50.874;3.656;2023-01-23T02:48:37;52.07;;;23.53;;
21046;SDS011;10682;50.874;3.656;2023-01-23T02:51:06;54.33;;;23.20;;
21046;SDS011;10682;50.874;3.656;2023-01-23T02:53:33;45.73;;;22.23;;
21046;SDS011;10682;50.874;3.656;2023-01-23T02:56:00;49.93;;;22.37;;
21046;SDS011;10682;50.874;3.656;2023-01-23T02:58:27;52.53;;;22.90;;
21046;SDS011;10682;50.874;3.656;2023-01-23T03:01:14;49.03;;;22.07;;
21046;SDS011;10682;50.874;3.656;2023-01-23T03:03:41;50.30;;;22.43;;
21046;SDS011;10682;50.874;3.656;2023-01-23T03:06:09;53.77;;;23.93;;
21046;SDS011;10682;50.874;3.656;2023-01-23T03:08:36;45.47;;;21.53;;
21046;SDS011;10682;50.874;3.656;2023-01-23T03:11:15;51.03;;;22.67;;
21046;SDS011;10682;50.874;3.656;2023-01-23T03:13:45;48.93;;;23.50;;
21046;SDS011;10682;50.874;3.656;2023-01-23T03:16:12;49.93;;;22.30;;
21046;SDS011;10682;50.874;3.656;2023-01-23T03:18:40;46.73;;;22.77;;
21046;SDS011;10682;50.874;3.656;2023-01-23T03:21:18;48.63;;;21.90;;
21046;SDS011;10682;50.874;3.656;2023-01-23T03:23:46;49.47;;;23.23;;
21046;SDS011;10682;50.874;3.656;2023-01-23T03:26:13;54.40;;;24.70;;
21046;SDS011;10682;50.874;3.656;2023-01-23T03:28:41;55.80;;;23.60;;
21046;SDS011;10682;50.874;3.656;2023-01-23T03:31:26;53.17;;;23.97;;
21046;SDS011;10682;50.874;3.656;2023-01-23T03:33:53;53.00;;;23.03;;
21046;SDS011;10682;50.874;3.656;2023-01-23T03:36:20;51.43;;;23.20;;
21046;SDS011;10682;50.874;3.656;2023-01-23T03:38:47;48.43;;;22.37;;
21046;SDS011;10682;50.874;3.656;2023-01-23T03:41:36;54.33;;;24.43;;
21046;SDS011;10682;50.874;3.656;2023-01-23T03:44:07;53.63;;;23.77;;
21046;SDS011;10682;50.874;3.656;2023-01-23T03:46:34;55.23;;;24.67;;
21046;SDS011;10682;50.874;3.656;2023-01-23T03:49:04;49.73;;;22.60;;
21046;SDS011;10682;50.874;3.656;2023-01-23T03:51:31;57.83;;;24.17;;
21046;SDS011;10682;50.874;3.656;2023-01-23T03:53:58;53.97;;;24.13;;
21046;SDS011;10682;50.874;3.656;2023-01-23T03:56:25;56.63;;;24.53;;
21046;SDS011;10682;50.874;3.656;2023-01-23T03:58:53;54.37;;;25.20;;
21046;SDS011;10682;50.874;3.656;2023-01-23T04:01:20;62.17;;;25.87;;
21046;SDS011;10682;50.874;3.656;2023-01-23T04:03:48;58.10;;;25.27;;
21046;SDS011;10682;50.874;3.656;2023-01-23T04:06:15;58.37;;;25.93;;
21046;SDS011;10682;50.874;3.656;2023-01-23T04:08:43;60.87;;;25.83;;
21046;SDS011;10682;50.874;3.656;2023-01-23T04:11:11;65.17;;;26.13;;
21046;SDS011;10682;50.874;3.656;2023-01-23T04:13:39;65.47;;;26.80;;
21046;SDS011;10682;50.874;3.656;2023-01-23T04:16:11;60.70;;;25.17;;
21046;SDS011;10682;50.874;3.656;2023-01-23T04:18:39;55.43;;;25.80;;
21046;SDS011;10682;50.874;3.656;2023-01-23T04:21:06;58.00;;;25.67;;
21046;SDS011;10682;50.874;3.656;2023-01-23T04:23:36;60.63;;;26.10;;
21046;SDS011;10682;50.874;3.656;2023-01-23T04:26:06;61.43;;;27.00;;
21046;SDS011;10682;50.874;3.656;2023-01-23T04:28:33;62.37;;;26.83;;
21046;SDS011;10682;50.874;3.656;2023-01-23T04:31:00;65.87;;;28.03;;
21046;SDS011;10682;50.874;3.656;2023-01-23T04:33:27;60.60;;;26.57;;
21046;SDS011;10682;50.874;3.656;2023-01-23T04:35:59;61.57;;;27.03;;
21046;SDS011;10682;50.874;3.656;2023-01-23T04:38:28;66.73;;;28.93;;
21046;SDS011;10682;50.874;3.656;2023-01-23T04:40:56;68.30;;;27.63;;
21046;SDS011;10682;50.874;3.656;2023-01-23T04:43:26;65.40;;;27.47;;
21046;SDS011;10682;50.874;3.656;2023-01-23T04:45:58;64.43;;;27.60;;
21046;SDS011;10682;50.874;3.656;2023-01-23T04:48:25;68.57;;;27.60;;
21046;SDS011;10682;50.874;3.656;2023-01-23T04:50:52;64.70;;;27.97;;
21046;SDS011;10682;50.874;3.656;2023-01-23T04:53:22;68.90;;;28.43;;
21046;SDS011;10682;50.874;3.656;2023-01-23T04:55:49;64.90;;;28.23;;
21046;SDS011;10682;50.874;3.656;2023-01-23T04:58:16;67.17;;;27.20;;
21046;SDS011;10682;50.874;3.656;2023-01-23T05:00:45;74.10;;;28.90;;
21046;SDS011;10682;50.874;3.656;2023-01-23T05:03:12;72.70;;;30.00;;
21046;SDS011;10682;50.874;3.656;2023-01-23T05:05:41;70.37;;;28.77;;
21046;SDS011;10682;50.874;3.656;2023-01-23T05:08:11;64.30;;;28.37;;
21046;SDS011;10682;50.874;3.656;2023-01-23T05:10:40;64.90;;;28.67;;
21046;SDS011;10682;50.874;3.656;2023-01-23T05:13:07;71.87;;;28.63;;
21046;SDS011;10682;50.874;3.656;2023-01-23T05:15:35;69.17;;;29.07;;
21046;SDS011;10682;50.874;3.656;2023-01-23T05:18:02;65.50;;;26.67;;
21046;SDS011;10682;50.874;3.656;2023-01-23T05:20:32;68.70;;;28.07;;
21046;SDS011;10682;50.874;3.656;2023-01-23T05:22:59;75.10;;;29.07;;
21046;SDS011;10682;50.874;3.656;2023-01-23T05:25:28;70.97;;;28.83;;
21046;SDS011;10682;50.874;3.656;2023-01-23T05:27:55;70.00;;;28.27;;
21046;SDS011;10682;50.874;3.656;2023-01-23T05:30:22;62.53;;;27.87;;
21046;SDS011;10682;50.874;3.656;2023-01-23T05:32:49;61.50;;;26.43;;
21046;SDS011;10682;50.874;3.656;2023-01-23T05:35:16;66.63;;;28.70;;
21046;SDS011;10682;50.874;3.656;2023-01-23T05:37:47;58.20;;;26.67;;
21046;SDS011;10682;50.874;3.656;2023-01-23T05:40:18;62.80;;;27.23;;
21046;SDS011;10682;50.874;3.656;2023-01-23T05:42:46;62.70;;;26.53;;
21046;SDS011;10682;50.874;3.656;2023-01-23T05:45:14;64.30;;;27.23;;
21046;SDS011;10682;50.874;3.656;2023-01-23T05:47:41;67.90;;;27.90;;
21046;SDS011;10682;50.874;3.656;2023-01-23T05:50:12;63.77;;;26.87;;
21046;SDS011;10682;50.874;3.656;2023-01-23T05:52:43;65.40;;;27.13;;
21046;SDS011;10682;50.874;3.656;2023-01-23T05:55:11;71.07;;;28.47;;
21046;SDS011;10682;50.874;3.656;2023-01-23T05:57:38;70.27;;;28.53;;
21046;SDS011;10682;50.874;3.656;2023-01-23T06:00:06;59.60;;;26.77;;
21046;SDS011;10682;50.874;3.656;2023-01-23T06:02:37;60.10;;;26.20;;
21046;SDS011;10682;50.874;3.656;2023-01-23T06:05:05;62.93;;;27.03;;
21046;SDS011;10682;50.874;3.656;2023-01-23T06:07:32;62.97;;;26.77;;
21046;SDS011;10682;50.874;3.656;2023-01-23T06:09:59;65.50;;;28.87;;
21046;SDS011;10682;50.874;3.656;2023-01-23T06:12:26;67.20;;;28.97;;
21046;SDS011;10682;50.874;3.656;2023-01-23T06:14:53;67.47;;;29.10;;
21046;SDS011;10682;50.874;3.656;2023-01-23T06:17:20;69.60;;;28.97;;
21046;SDS011;10682;50.874;3.656;2023-01-23T06:19:47;65.77;;;27.90;;
21046;SDS011;10682;50.874;3.656;2023-01-23T06:22:15;64.33;;;28.30;;
21046;SDS011;10682;50.874;3.656;2023-01-23T06:24:42;60.43;;;26.93;;
21046;SDS011;10682;50.874;3.656;2023-01-23T06:27:09;56.77;;;25.97;;
21046;SDS011;10682;50.874;3.656;2023-01-23T06:29:36;53.93;;;23.67;;
21046;SDS011;10682;50.874;3.656;2023-01-23T06:32:03;55.97;;;25.40;;
21046;SDS011;10682;50.874;3.656;2023-01-23T06:34:31;55.97;;;25.83;;
21046;SDS011;10682;50.874;3.656;2023-01-23T06:36:58;60.90;;;25.60;;
21046;SDS011;10682;50.874;3.656;2023-01-23T06:39:26;51.30;;;23.97;;
21046;SDS011;10682;50.874;3.656;2023-01-23T06:41:55;58.83;;;27.40;;
21046;SDS011;10682;50.874;3.656;2023-01-23T06:44:22;62.33;;;27.63;;
21046;SDS011;10682;50.874;3.656;2023-01-23T06:46:51;56.77;;;26.33;;
21046;SDS011;10682;50.874;3.656;2023-01-23T06:49:18;58.40;;;25.33;;
21046;SDS011;10682;50.874;3.656;2023-01-23T06:51:45;59.97;;;26.07;;
21046;SDS011;10682;50.874;3.656;2023-01-23T06:54:12;55.77;;;25.23;;
21046;SDS011;10682;50.874;3.656;2023-01-23T06:56:39;63.47;;;25.90;;
21046;SDS011;10682;50.874;3.656;2023-01-23T06:59:06;68.37;;;27.27;;
21046;SDS011;10682;50.874;3.656;2023-01-23T07:01:33;57.83;;;26.20;;
21046;SDS011;10682;50.874;3.656;2023-01-23T07:04:01;62.63;;;26.27;;
21046;SDS011;10682;50.874;3.656;2023-01-23T07:06:28;62.13;;;25.83;;
21046;SDS011;10682;50.874;3.656;2023-01-23T07:08:59;60.70;;;25.53;;
21046;SDS011;10682;50.874;3.656;2023-01-23T07:11:27;65.87;;;26.67;;
21046;SDS011;10682;50.874;3.656;2023-01-23T07:13:54;71.90;;;29.00;;
21046;SDS011;10682;50.874;3.656;2023-01-23T07:16:20;65.87;;;27.33;;
21046;SDS011;10682;50.874;3.656;2023-01-23T07:18:48;64.40;;;27.13;;
21046;SDS011;10682;50.874;3.656;2023-01-23T07:21:15;66.43;;;27.80;;
21046;SDS011;10682;50.874;3.656;2023-01-23T07:23:42;71.43;;;27.50;;
21046;SDS011;10682;50.874;3.656;2023-01-23T07:26:09;88.50;;;29.87;;
21046;SDS011;10682;50.874;3.656;2023-01-23T07:28:37;100.03;;;31.67;;
21046;SDS011;10682;50.874;3.656;2023-01-23T07:31:05;82.37;;;29.93;;
21046;SDS011;10682;50.874;3.656;2023-01-23T07:33:32;70.97;;;28.70;;
21046;SDS011;10682;50.874;3.656;2023-01-23T07:35:59;69.03;;;27.30;;
21046;SDS011;10682;50.874;3.656;2023-01-23T07:38:26;75.67;;;29.70;;
21046;SDS011;10682;50.874;3.656;2023-01-23T07:40:56;74.30;;;29.97;;
21046;SDS011;10682;50.874;3.656;2023-01-23T07:43:24;73.40;;;29.10;;
21046;SDS011;10682;50.874;3.656;2023-01-23T07:45:52;75.77;;;28.27;;
21046;SDS011;10682;50.874;3.656;2023-01-23T07:48:19;69.90;;;28.70;;
21046;SDS011;10682;50.874;3.656;2023-01-23T07:50:46;77.07;;;31.13;;
21046;SDS011;10682;50.874;3.656;2023-01-23T07:53:13;67.87;;;28.90;;
21046;SDS011;10682;50.874;3.656;2023-01-23T07:55:40;68.73;;;28.63;;
21046;SDS011;10682;50.874;3.656;2023-01-23T07:58:07;66.53;;;28.83;;
21046;SDS011;10682;50.874;3.656;2023-01-23T08:00:34;69.10;;;28.07;;
21046;SDS011;10682;50.874;3.656;2023-01-23T08:03:01;75.73;;;30.23;;
21046;SDS011;10682;50.874;3.656;2023-01-23T08:05:28;77.20;;;30.87;;
21046;SDS011;10682;50.874;3.656;2023-01-23T08:07:55;74.87;;;30.87;;
21046;SDS011;10682;50.874;3.656;2023-01-23T08:10:38;73.30;;;29.60;;
21046;SDS011;10682;50.874;3.656;2023-01-23T08:13:05;72.73;;;30.37;;
21046;SDS011;10682;50.874;3.656;2023-01-23T08:15:32;72.43;;;29.47;;
21046;SDS011;10682;50.874;3.656;2023-01-23T08:17:59;73.43;;;28.53;;
21046;SDS011;10682;50.874;3.656;2023-01-23T08:20:26;70.40;;;28.40;;
21046;SDS011;10682;50.874;3.656;2023-01-23T08:22:53;71.27;;;29.37;;
21046;SDS011;10682;50.874;3.656;2023-01-23T08:25:21;75.70;;;29.53;;
21046;SDS011;10682;50.874;3.656;2023-01-23T08:27:48;69.10;;;29.13;;
21046;SDS011;10682;50.874;3.656;2023-01-23T08:30:15;77.63;;;29.23;;
21046;SDS011;10682;50.874;3.656;2023-01-23T08:32:43;68.73;;;27.87;;
21046;SDS011;10682;50.874;3.656;2023-01-23T08:35:10;66.10;;;26.97;;
21046;SDS011;10682;50.874;3.656;2023-01-23T08:37:40;69.60;;;29.27;;
21046;SDS011;10682;50.874;3.656;2023-01-23T08:40:08;75.83;;;29.63;;
21046;SDS011;10682;50.874;3.656;2023-01-23T08:42:35;68.40;;;28.73;;
21046;SDS011;10682;50.874;3.656;2023-01-23T08:45:06;64.53;;;26.90;;
21046;SDS011;10682;50.874;3.656;2023-01-23T08:47:34;73.60;;;30.33;;
21046;SDS011;10682;50.874;3.656;2023-01-23T08:50:02;70.27;;;28.77;;
21046;SDS011;10682;50.874;3.656;2023-01-23T08:52:33;63.30;;;27.83;;
21046;SDS011;10682;50.874;3.656;2023-01-23T08:55:01;69.40;;;28.30;;
21046;SDS011;10682;50.874;3.656;2023-01-23T08:57:28;70.27;;;28.80;;
21046;SDS011;10682;50.874;3.656;2023-01-23T08:59:55;68.57;;;29.07;;
21046;SDS011;10682;50.874;3.656;2023-01-23T09:02:22;70.73;;;28.87;;
21046;SDS011;10682;50.874;3.656;2023-01-23T09:04:49;70.47;;;29.10;;
21046;SDS011;10682;50.874;3.656;2023-01-23T09:07:17;63.50;;;28.17;;
21046;SDS011;10682;50.874;3.656;2023-01-23T09:09:44;67.57;;;27.63;;
21046;SDS011;10682;50.874;3.656;2023-01-23T09:12:11;69.13;;;27.77;;
21046;SDS011;10682;50.874;3.656;2023-01-23T09:14:38;62.33;;;27.00;;
21046;SDS011;10682;50.874;3.656;2023-01-23T09:17:05;65.63;;;29.00;;
21046;SDS011;10682;50.874;3.656;2023-01-23T09:19:32;65.97;;;26.87;;
21046;SDS011;10682;50.874;3.656;2023-01-23T09:22:00;72.60;;;30.07;;
21046;SDS011;10682;50.874;3.656;2023-01-23T09:24:27;72.33;;;28.10;;
21046;SDS011;10682;50.874;3.656;2023-01-23T09:26:54;76.30;;;27.93;;
21046;SDS011;10682;50.874;3.656;2023-01-23T09:29:21;96.40;;;29.80;;
21046;SDS011;10682;50.874;3.656;2023-01-23T09:31:48;72.03;;;28.33;;
21046;SDS011;10682;50.874;3.656;2023-01-23T09:34:15;65.30;;;27.70;;
21046;SDS011;10682;50.874;3.656;2023-01-23T09:36:42;70.17;;;28.43;;
21046;SDS011;10682;50.874;3.656;2023-01-23T09:39:09;68.03;;;25.57;;
21046;SDS011;10682;50.874;3.656;2023-01-23T09:41:38;97.73;;;30.33;;
21046;SDS011;10682;50.874;3.656;2023-01-23T09:44:11;72.93;;;28.07;;
21046;SDS011;10682;50.874;3.656;2023-01-23T09:46:52;68.90;;;27.50;;
21046;SDS011;10682;50.874;3.656;2023-01-23T09:49:29;70.87;;;28.67;;
21046;SDS011;10682;50.874;3.656;2023-01-23T09:52:25;63.23;;;27.23;;
21046;SDS011;10682;50.874;3.656;2023-01-23T09:55:01;66.37;;;26.47;;
21046;SDS011;10682;50.874;3.656;2023-01-23T09:57:42;63.17;;;26.80;;
21046;SDS011;10682;50.874;3.656;2023-01-23T10:00:28;71.80;;;28.00;;
21046;SDS011;10682;50.874;3.656;2023-01-23T10:03:09;72.77;;;28.50;;
21046;SDS011;10682;50.874;3.656;2023-01-23T10:15:29;69.37;;;27.40;;
21046;SDS011;10682;50.874;3.656;2023-01-23T10:20:50;68.87;;;28.20;;
21046;SDS011;10682;50.874;3.656;2023-01-23T10:26:25;69.27;;;28.40;;
21046;SDS011;10682;50.874;3.656;2023-01-23T10:29:01;65.57;;;26.53;;
21046;SDS011;10682;50.874;3.656;2023-01-23T10:34:19;68.10;;;27.67;;
21046;SDS011;10682;50.874;3.656;2023-01-23T10:39:47;66.40;;;27.67;;
21046;SDS011;10682;50.874;3.656;2023-01-23T10:42:20;71.33;;;27.77;;
21046;SDS011;10682;50.874;3.656;2023-01-23T10:44:48;69.10;;;27.27;;
21046;SDS011;10682;50.874;3.656;2023-01-23T10:47:30;70.17;;;28.63;;
21046;SDS011;10682;50.874;3.656;2023-01-23T10:50:08;68.50;;;27.20;;
21046;SDS011;10682;50.874;3.656;2023-01-23T10:57:54;65.67;;;26.93;;
21046;SDS011;10682;50.874;3.656;2023-01-23T11:00:34;68.97;;;27.43;;
21046;SDS011;10682;50.874;3.656;2023-01-23T11:06:02;66.17;;;28.30;;
21046;SDS011;10682;50.874;3.656;2023-01-23T11:08:34;67.03;;;28.83;;
21046;SDS011;10682;50.874;3.656;2023-01-23T11:13:43;64.50;;;27.27;;
21046;SDS011;10682;50.874;3.656;2023-01-23T11:16:20;62.87;;;26.93;;
21046;SDS011;10682;50.874;3.656;2023-01-23T11:27:26;61.03;;;26.20;;
21046;SDS011;10682;50.874;3.656;2023-01-23T11:32:53;60.67;;;25.70;;
21046;SDS011;10682;50.874;3.656;2023-01-23T11:35:40;60.50;;;26.47;;
21046;SDS011;10682;50.874;3.656;2023-01-23T11:38:10;62.43;;;26.07;;
21046;SDS011;10682;50.874;3.656;2023-01-23T11:40:55;58.60;;;25.27;;
21046;SDS011;10682;50.874;3.656;2023-01-23T11:43:22;54.43;;;24.63;;
21046;SDS011;10682;50.874;3.656;2023-01-23T12:01:21;46.50;;;21.93;;
21046;SDS011;10682;50.874;3.656;2023-01-23T12:07:20;52.47;;;23.77;;
21046;SDS011;10682;50.874;3.656;2023-01-23T12:10:07;52.67;;;24.50;;
21046;SDS011;10682;50.874;3.656;2023-01-23T12:18:14;49.33;;;22.43;;
21046;SDS011;10682;50.874;3.656;2023-01-23T12:24:17;51.10;;;22.57;;
21046;SDS011;10682;50.874;3.656;2023-01-23T12:33:25;47.70;;;23.17;;
21046;SDS011;10682;50.874;3.656;2023-01-23T12:39:08;47.43;;;22.43;;
21046;SDS011;10682;50.874;3.656;2023-01-23T12:41:48;49.60;;;24.03;;
21046;SDS011;10682;50.874;3.656;2023-01-23T12:44:36;50.97;;;23.87;;
21046;SDS011;10682;50.874;3.656;2023-01-23T12:47:32;44.63;;;21.87;;
21046;SDS011;10682;50.874;3.656;2023-01-23T12:53:11;49.20;;;22.80;;
21046;SDS011;10682;50.874;3.656;2023-01-23T12:55:54;48.57;;;23.80;;
21046;SDS011;10682;50.874;3.656;2023-01-23T12:59:18;47.77;;;22.97;;
21046;SDS011;10682;50.874;3.656;2023-01-23T13:07:37;48.17;;;22.47;;
21046;SDS011;10682;50.874;3.656;2023-01-23T13:13:52;45.37;;;21.50;;
21046;SDS011;10682;50.874;3.656;2023-01-23T13:16:19;48.77;;;23.03;;
21046;SDS011;10682;50.874;3.656;2023-01-23T13:27:52;49.67;;;23.30;;
21046;SDS011;10682;50.874;3.656;2023-01-23T13:32:50;49.27;;;23.63;;
21046;SDS011;10682;50.874;3.656;2023-01-23T13:38:55;48.90;;;23.23;;
21046;SDS011;10682;50.874;3.656;2023-01-23T13:46:25;51.90;;;23.40;;
21046;SDS011;10682;50.874;3.656;2023-01-23T13:52:56;45.83;;;22.27;;
21046;SDS011;10682;50.874;3.656;2023-01-23T13:56:21;47.43;;;23.10;;
21046;SDS011;10682;50.874;3.656;2023-01-23T14:02:16;48.37;;;23.17;;
21046;SDS011;10682;50.874;3.656;2023-01-23T14:05:32;44.00;;;21.63;;
21046;SDS011;10682;50.874;3.656;2023-01-23T14:08:16;42.83;;;20.77;;
21046;SDS011;10682;50.874;3.656;2023-01-23T14:11:00;44.23;;;22.23;;
21046;SDS011;10682;50.874;3.656;2023-01-23T14:13:47;49.07;;;23.13;;
21046;SDS011;10682;50.874;3.656;2023-01-23T14:16:29;49.97;;;23.43;;
21046;SDS011;10682;50.874;3.656;2023-01-23T14:19:23;50.23;;;24.27;;
21046;SDS011;10682;50.874;3.656;2023-01-23T14:22:09;49.60;;;23.93;;
21046;SDS011;10682;50.874;3.656;2023-01-23T14:27:19;52.30;;;24.23;;
21046;SDS011;10682;50.874;3.656;2023-01-23T14:29:56;52.90;;;25.43;;
21046;SDS011;10682;50.874;3.656;2023-01-23T14:32:40;51.63;;;25.40;;
21046;SDS011;10682;50.874;3.656;2023-01-23T14:35:17;53.30;;;25.50;;
21046;SDS011;10682;50.874;3.656;2023-01-23T14:37:54;53.87;;;26.20;;
21046;SDS011;10682;50.874;3.656;2023-01-23T14:40:25;55.00;;;27.37;;
21046;SDS011;10682;50.874;3.656;2023-01-23T14:43:14;61.87;;;27.53;;
21046;SDS011;10682;50.874;3.656;2023-01-23T14:45:46;58.80;;;28.53;;
21046;SDS011;10682;50.874;3.656;2023-01-23T14:48:31;61.17;;;29.23;;
21046;SDS011;10682;50.874;3.656;2023-01-23T14:51:04;62.07;;;29.00;;
21046;SDS011;10682;50.874;3.656;2023-01-23T14:53:48;63.63;;;30.27;;
21046;SDS011;10682;50.874;3.656;2023-01-23T14:56:47;57.60;;;28.13;;
21046;SDS011;10682;50.874;3.656;2023-01-23T14:59:19;63.60;;;29.93;;
21046;SDS011;10682;50.874;3.656;2023-01-23T15:02:01;64.03;;;29.57;;
21046;SDS011;10682;50.874;3.656;2023-01-23T15:07:46;67.50;;;30.83;;
21046;SDS011;10682;50.874;3.656;2023-01-23T15:12:57;63.67;;;29.23;;
21046;SDS011;10682;50.874;3.656;2023-01-23T15:15:31;55.30;;;26.30;;
21046;SDS011;10682;50.874;3.656;2023-01-23T15:17:59;57.53;;;27.37;;
21046;SDS011;10682;50.874;3.656;2023-01-23T15:20:37;59.03;;;27.63;;
21046;SDS011;10682;50.874;3.656;2023-01-23T15:25:44;58.93;;;27.40;;
21046;SDS011;10682;50.874;3.656;2023-01-23T15:28:47;58.60;;;25.60;;
21046;SDS011;10682;50.874;3.656;2023-01-23T15:31:34;58.63;;;24.97;;
21046;SDS011;10682;50.874;3.656;2023-01-23T15:36:51;57.13;;;25.03;;
21046;SDS011;10682;50.874;3.656;2023-01-23T15:44:43;54.73;;;26.03;;
21046;SDS011;10682;50.874;3.656;2023-01-23T15:47:10;63.43;;;27.27;;
21046;SDS011;10682;50.874;3.656;2023-01-23T15:49:38;59.90;;;26.07;;
21046;SDS011;10682;50.874;3.656;2023-01-23T15:52:14;55.37;;;25.70;;
21046;SDS011;10682;50.874;3.656;2023-01-23T15:54:45;55.47;;;25.37;;
21046;SDS011;10682;50.874;3.656;2023-01-23T15:57:14;52.87;;;24.67;;
21046;SDS011;10682;50.874;3.656;2023-01-23T15:59:41;52.53;;;24.40;;
21046;SDS011;10682;50.874;3.656;2023-01-23T16:02:18;55.73;;;24.23;;
21046;SDS011;10682;50.874;3.656;2023-01-23T16:04:58;53.13;;;24.23;;
21046;SDS011;10682;50.874;3.656;2023-01-23T16:07:34;59.13;;;26.47;;
21046;SDS011;10682;50.874;3.656;2023-01-23T16:12:54;120.50;;;55.73;;
21046;SDS011;10682;50.874;3.656;2023-01-23T16:15:24;96.23;;;47.07;;
21046;SDS011;10682;50.874;3.656;2023-01-23T16:17:54;88.90;;;44.10;;
21046;SDS011;10682;50.874;3.656;2023-01-23T16:20:26;63.83;;;30.60;;
21046;SDS011;10682;50.874;3.656;2023-01-23T16:22:57;62.43;;;26.50;;
21046;SDS011;10682;50.874;3.656;2023-01-23T16:25:39;57.60;;;25.40;;
21046;SDS011;10682;50.874;3.656;2023-01-23T16:28:11;50.63;;;23.43;;
21046;SDS011;10682;50.874;3.656;2023-01-23T16:30:40;56.63;;;25.20;;
21046;SDS011;10682;50.874;3.656;2023-01-23T16:33:08;54.60;;;24.97;;
21046;SDS011;10682;50.874;3.656;2023-01-23T16:35:35;53.37;;;23.93;;
21046;SDS011;10682;50.874;3.656;2023-01-23T16:38:02;52.53;;;24.23;;
21046;SDS011;10682;50.874;3.656;2023-01-23T16:40:31;50.03;;;22.77;;
21046;SDS011;10682;50.874;3.656;2023-01-23T16:42:59;58.27;;;24.80;;
21046;SDS011;10682;50.874;3.656;2023-01-23T16:45:29;54.20;;;24.27;;
21046;SDS011;10682;50.874;3.656;2023-01-23T16:47:58;47.80;;;22.63;;
21046;SDS011;10682;50.874;3.656;2023-01-23T16:50:32;50.07;;;22.27;;
21046;SDS011;10682;50.874;3.656;2023-01-23T16:53:03;49.80;;;22.33;;
21046;SDS011;10682;50.874;3.656;2023-01-23T16:55:48;51.57;;;23.27;;
21046;SDS011;10682;50.874;3.656;2023-01-23T16:58:17;46.20;;;22.23;;
21046;SDS011;10682;50.874;3.656;2023-01-23T17:00:48;49.60;;;22.50;;
21046;SDS011;10682;50.874;3.656;2023-01-23T17:03:20;46.07;;;21.50;;
21046;SDS011;10682;50.874;3.656;2023-01-23T17:05:50;47.37;;;21.13;;
21046;SDS011;10682;50.874;3.656;2023-01-23T17:08:18;47.47;;;21.47;;
21046;SDS011;10682;50.874;3.656;2023-01-23T17:10:56;45.47;;;20.90;;
21046;SDS011;10682;50.874;3.656;2023-01-23T17:13:28;48.20;;;21.73;;
21046;SDS011;10682;50.874;3.656;2023-01-23T17:15:58;41.03;;;20.10;;
21046;SDS011;10682;50.874;3.656;2023-01-23T17:18:30;36.80;;;19.77;;
21046;SDS011;10682;50.874;3.656;2023-01-23T17:21:00;44.40;;;20.17;;
21046;SDS011;10682;50.874;3.656;2023-01-23T17:23:30;38.53;;;19.90;;